Monteview, Idaho
Current Conditions -  °F | °C
As of 4:53 AM on Saturday 25 Oct 2014 (Local Time) from KRXE Reporting Station
Clear Clear  
Wind Chill: -1°   Ceiling: Unl
Heat Index:   Visibility: 10mi
Dew Point: -2°   Wind: 5mph
Humidity: 76%   Direction: 50°NE
Pressure: 30.07"   Gusts: NA
Location:  43.94°N, 112.54°W
Report Text: KRXE 251053Z AUTO 05004KT 10SM CLR 02/M02 A3007 RMK AO2 SLP164 T00171022
Loading
Personal Weather Stations






























Interactive Weather Map
Tropical Storm Tracking
New forecast layout! Learn more

10-Day Weather Forecast

Advertisements
Track Severe Weather on mobile